Ocean Pines, Maryland
Current Conditions -  °F | °C
As of 7:53 AM on Friday 31 Oct 2014 (Local Time) from KOXB Reporting Station
Few Clouds Few Clouds  
Wind Chill: 45°   Ceiling: Unl
Heat Index: 48°   Visibility: 10mi
Dew Point: 40°   Wind: 6mph
Humidity: 74%   Direction: 360°N
Pressure: 29.98"   Gusts: NA
Location:  38.3252°N, 75.2176°W
Report Text: KOXB 311153Z AUTO 36005KT 10SM FEW055 09/04 A2998 RMK AO2 SLP151 T00890044 10089 20039 55002 TSNO
Loading
Personal Weather Stations






























Interactive Weather Map
Tropical Storm Tracking
New forecast layout! Learn more

10-Day Weather Forecast

Advertisements
Track Severe Weather on mobile